This is the latest recevied weather packets stored in our database for station/object KE8KMM. If no packets are shown the sender has not sent any weather packets the latest 10 day(s).
| Time | Temp. | Humidity | Pressure | Rain* | Wind** | Luminosity | Snow |
|---|---|---|---|---|---|---|---|
| 1777740417 | 6.67° C | 76% | 1015.9 hPa | 0 mm | - | 278 W/m² | - |
| 1777740115 | 6.67° C | 77% | 1016 hPa | 0 mm | - | 265 W/m² | - |
| 1777739810 | 6.67° C | 76% | 1016 hPa | 0 mm | - | 276 W/m² | - |
| 1777739507 | 6.67° C | 78% | 1015.8 hPa | 0 mm | - | 233 W/m² | - |
| 1777739204 | 6.67° C | 79% | 1016 hPa | 0 mm | - | 146 W/m² | - |
| 1777738901 | 6.11° C | 77% | 1015.9 hPa | 0 mm | - | 109 W/m² | - |
| 1777738598 | 6.11° C | 76% | 1015.8 hPa | 0 mm | - | 101 W/m² | - |
| 1777738295 | 6.67° C | 76% | 1016.2 hPa | 0 mm | - | 107 W/m² | - |
| 1777737993 | 6.67° C | 73% | 1015.6 hPa | 0 mm | - | 168 W/m² | - |
| 1777737691 | 7.78° C | 75% | 1015.8 hPa | 0 mm | - | 222 W/m² | - |
| 1777737390 | 6.67° C | 74% | 1015.8 hPa | 0 mm | - | 394 W/m² | - |
| 1777737086 | 6.67° C | 73% | 1015.5 hPa | 0 mm | - | 329 W/m² | - |
| 1777736783 | 7.22° C | 72% | 1015.8 hPa | 0 mm | - | 161 W/m² | - |
| 1777736160 | 8.33° C | 67% | 1015.5 hPa | 0 mm | - | 553 W/m² | - |
| 1777735857 | 8.89° C | 69% | 1015.3 hPa | 0 mm | - | 890 W/m² | - |
| 1777735555 | 6.67° C | 72% | 1015.6 hPa | 0 mm | - | 791 W/m² | - |
| 1777735251 | 7.22° C | 69% | 1015.4 hPa | 0 mm | - | 160 W/m² | - |
| 1777734949 | 7.22° C | 69% | 1015.6 hPa | 0 mm | - | 192 W/m² | - |
| 1777734646 | 7.22° C | 69% | 1015.5 hPa | 0 mm | - | 477 W/m² | - |
| 1777734344 | 7.22° C | 67% | 1015.1 hPa | 0 mm | - | 208 W/m² | - |
| 1777734039 | 7.78° C | 69% | 1015.4 hPa | 0 mm | - | 167 W/m² | - |
| 1777733736 | 7.78° C | 68% | 1015.3 hPa | 0 mm | - | 214 W/m² | - |
| 1777733432 | 8.33° C | 67% | 1015.1 hPa | 0 mm | - | 232 W/m² | - |
| 1777733129 | 7.78° C | 68% | 1015.1 hPa | 0 mm | - | 192 W/m² | - |
| 1777732826 | 7.78° C | 67% | 1015.3 hPa | 0 mm | - | 172 W/m² | - |
* Rain latest hour (hover to see other rain measurements)
** Current wind speed in m/s (hover to see current wind gust speed)